Data for 11/16/2015

Time Sea-Level Adjusted Pressure Absolute Pressure Temperature Relative Humidity Dew Point   
(mb) (inHg) (mb) (inHg) (C) (F) (%) (C) (F)
00:05 1003 29.62 832 24.57 3.4 38.1 41 -8.6 16.5
00:10 1003 29.62 832 24.57 3.5 38.4 41 -8.7 16.4
00:15 1003 29.62 832 24.57 3.7 38.7 40 -8.8 16.1
00:20 1003 29.62 832 24.57 3.7 38.6 42 -8.1 17.4
00:25 1003 29.62 832 24.57 3.4 38.1 43 -8 17.7
00:30 1003 29.62 832 24.57 3.2 37.7 43 -8.2 17.3
00:35 1003 29.62 832 24.57 3.3 37.9 43 -8.3 17.1
00:40 1003 29.62 832 24.57 3.3 37.9 42 -8.4 17
00:45 1003 29.62 832 24.57 3.4 38.1 41 -8.6 16.5
00:50 1003 29.62 832 24.57 3.5 38.3 41 -8.6 16.6
00:55 1003 29.62 832 24.57 3.6 38.5 42 -8.3 17.1
01:00 1003 29.62 832 24.57 3.4 38.1 43 -8.1 17.3
01:05 1003 29.62 832 24.57 3 37.4 45 -7.9 17.8
01:10 1003 29.62 832 24.57 3 37.3 44 -8.1 17.4
01:15 1003 29.62 832 24.57 3.1 37.6 41 -8.9 15.9
01:20 1003 29.62 832 24.57 3.9 39 39 -8.8 16.2
01:25 1003 29.62 832 24.57 3.8 38.9 40 -8.7 16.4
01:30 1003 29.62 832 24.57 3.8 38.9 41 -8.4 16.9
01:35 1003 29.62 832 24.57 3.7 38.7 41 -8.2 17.2
01:40 1003 29.62 832 24.57 4 39.3 39 -8.8 16.2
01:45 1003 29.62 832 24.57 4.3 39.8 38 -8.8 16.1
01:50 1003 29.62 832 24.57 4.3 39.7 38 -8.8 16.2
01:55 1003 29.62 832 24.57 4.2 39.6 40 -8.4 17
02:00 1003 29.62 832 24.57 3.9 38.9 40 -8.4 16.9
02:05 1003 29.62 832 24.57 3.7 38.7 41 -8.3 17
02:10 1003 29.62 832 24.57 3.6 38.6 41 -8.5 16.7
02:15 1003 29.62 832 24.57 3.8 38.9 40 -8.5 16.6
02:20 1003 29.62 832 24.57 4 39.2 44 -7.2 19
02:25 1003 29.62 832 24.57 3.4 38.1 50 -6 21.1
02:30 1003 29.62 832 24.57 2.7 36.9 51 -6.5 20.3
02:35 1003 29.62 832 24.57 2.4 36.4 51 -6.8 19.8
02:40 1003 29.62 832 24.57 2.4 36.3 51 -6.8 19.8
02:45 1003 29.62 832 24.57 2.3 36.2 52 -6.6 20.2
02:50 1003 29.62 832 24.57 2.2 35.9 54 -6.2 20.9
02:55 1003 29.62 832 24.57 2.3 36.2 53 -6.2 20.8
03:00 1003 29.62 832 24.57 2.3 36.1 55 -5.8 21.5
03:05 1003 29.62 833 24.6 2.1 35.7 54 -6.2 20.8
03:10 1003 29.62 833 24.6 2.3 36.1 55 -6 21.3
03:15 1004 29.65 833 24.6 2.1 35.8 55 -6 21.2
03:20 1004 29.65 833 24.6 2.4 36.3 55 -5.8 21.6
03:25 1004 29.65 833 24.6 2.6 36.8 54 -5.8 21.5
03:30 1004 29.65 833 24.6 2.5 36.5 55 -5.6 21.9
03:35 1004 29.65 833 24.6 2 35.7 56 -5.8 21.6
03:40 1004 29.65 833 24.6 2 35.6 54 -6.4 20.4
03:45 1004 29.65 833 24.6 2.7 36.9 53 -6 21.2
03:50 1004 29.65 833 24.6 2.8 37 54 -5.6 21.9
03:55 1004 29.65 833 24.6 2.5 36.5 55 -5.5 22
04:00 1004 29.65 833 24.6 2.4 36.3 54 -6 21.2
04:05 1004 29.65 834 24.63 2.1 35.8 54 -6.2 20.8
04:10 1004 29.65 834 24.63 2 35.5 53 -6.6 20.1
04:15 1004 29.65 834 24.63 2.4 36.4 49 -7.1 19.1
04:20 1004 29.65 834 24.63 2.9 37.3 48 -7.1 19.3
04:25 1004 29.65 834 24.63 3.1 37.5 51 -6 21.1
04:30 1005 29.68 834 24.63 2.5 36.5 56 -5.5 22.1
04:35 1005 29.68 834 24.63 1.9 35.4 57 -5.7 21.7
04:40 1005 29.68 834 24.63 2 35.7 57 -5.6 21.9
04:45 1005 29.68 834 24.63 2.1 35.8 57 -5.5 22.1
04:50 1005 29.68 834 24.63 2.2 35.9 56 -5.7 21.8
04:55 1005 29.68 834 24.63 2.4 36.2 56 -5.5 22.1
05:00 1005 29.68 834 24.63 2.3 36.1 56 -5.5 22.1
05:05 1005 29.68 834 24.63 2.4 36.3 55 -5.7 21.7
05:10 1005 29.68 834 24.63 2.6 36.6 54 -5.8 21.5
05:15 1005 29.68 834 24.63 2.9 37.2 51 -6.2 20.9
05:20 1005 29.68 834 24.63 3.1 37.5 52 -5.9 21.3
05:25 1005 29.68 834 24.63 3.1 37.6 53 -5.5 22.1
05:30 1005 29.68 834 24.63 2.9 37.2 54 -5.5 22.1
05:35 1005 29.68 834 24.63 2.8 37 55 -5.4 22.2
05:40 1005 29.68 835 24.66 2.8 37 54 -5.7 21.7
05:45 1005 29.68 835 24.66 2.9 37.2 53 -5.7 21.7
05:50 1006 29.71 835 24.66 3.1 37.7 50 -6.2 20.9
05:55 1006 29.71 835 24.66 3.2 37.7 51 -6 21.2
06:00 1006 29.71 835 24.66 3.3 37.9 52 -5.7 21.8
06:05 1006 29.71 835 24.66 3.4 38.2 55 -4.8 23.4
06:10 1006 29.71 835 24.66 3.4 38.2 57 -4.3 24.2
06:15 1006 29.71 835 24.66 3.3 38 58 -4.1 24.7
06:20 1006 29.71 835 24.66 3.1 37.7 61 -3.7 25.3
06:25 1006 29.71 835 24.66 3 37.3 63 -3.5 25.7
06:30 1006 29.71 835 24.66 2.8 37 64 -3.3 26
06:35 1006 29.71 835 24.66 2.6 36.7 66 -3.1 26.4
06:40 1006 29.71 836 24.69 2.6 36.6 67 -3 26.6
06:45 1006 29.71 836 24.69 2.5 36.5 68 -2.9 26.8
06:50 1007 29.74 836 24.69 2.3 36.1 69 -2.8 27
06:55 1007 29.74 836 24.69 2 35.7 72 -2.5 27.5
07:00 1007 29.74 836 24.69 1.7 35 77 -2 28.4
07:05 1007 29.74 836 24.69 1.2 34.2 80 -1.8 28.8
07:10 1007 29.74 836 24.69 0.8 33.5 82 -1.9 28.7
07:15 1007 29.74 836 24.69 0.6 33 84 -1.8 28.7
07:20 1007 29.74 836 24.69 0.4 32.7 85 -1.9 28.6
07:25 1007 29.74 836 24.69 0.2 32.4 86 -1.9 28.6
07:30 1007 29.74 836 24.69 0.1 32.2 86 -2 28.5
07:35 1007 29.74 837 24.72 -0.1 31.9 87 -2 28.4
07:40 1008 29.77 837 24.72 -0.1 31.8 87 -2 28.4
07:45 1008 29.77 837 24.72 -0.3 31.5 88 -2.1 28.3
07:50 1008 29.77 837 24.72 -0.5 31.2 89 -2.1 28.2
07:55 1008 29.77 837 24.72 -0.6 30.9 89 -2.2 28.1
08:00 1008 29.77 837 24.72 -0.8 30.5 90 -2.2 28
08:05 1008 29.77 837 24.72 -1 30.3 91 -2.3 27.9
08:10 1008 29.77 837 24.72 -1.1 30.1 92 -2.2 28
08:15 1008 29.77 837 24.72 -1.2 29.9 92 -2.2 28
08:20 1008 29.77 838 24.75 -1.2 29.9 93 -2.2 28
08:25 1009 29.8 838 24.75 -1.2 29.8 93 -2.2 28
08:30 1009 29.8 838 24.75 -1.3 29.6 93 -2.2 28
08:35 1009 29.8 838 24.75 -1.4 29.5 94 -2.3 27.9
08:40 1009 29.8 838 24.75 -1.4 29.5 94 -2.3 27.9
08:45 1009 29.8 839 24.78 -1.4 29.4 94 -2.3 27.9
08:50 1009 29.8 839 24.78 -1.4 29.4 94 -2.3 27.9
08:55 1010 29.83 839 24.78 -1.5 29.3 94 -2.3 27.8
09:00 1010 29.83 839 24.78 -1.6 29.2 94 -2.4 27.6
09:05 1010 29.83 839 24.78 -1.7 29 94 -2.6 27.4
09:10 1010 29.83 839 24.78 -1.7 28.9 94 -2.6 27.4
09:15 1010 29.83 839 24.78 -1.8 28.8 94 -2.6 27.2
09:20 1010 29.83 839 24.78 -1.9 28.7 94 -2.7 27.1
09:25 1010 29.83 839 24.78 -1.9 28.6 94 -2.8 27
09:30 1010 29.83 840 24.81 -1.9 28.6 94 -2.7 27.1
09:35 1010 29.83 840 24.81 -1.9 28.6 94 -2.7 27.1
09:40 1011 29.85 840 24.81 -1.9 28.6 94 -2.7 27.1
09:45 1011 29.85 840 24.81 -1.9 28.6 94 -2.8 27
09:50 1011 29.85 840 24.81 -2 28.5 94 -2.8 26.9
09:55 1011 29.85 840 24.81 -2 28.4 94 -2.9 26.8
10:00 1011 29.85 840 24.81 -2 28.4 94 -2.9 26.8
10:05 1011 29.85 840 24.81 -2 28.4 94 -2.9 26.8
10:10 1011 29.85 840 24.81 -2 28.4 94 -2.9 26.8
10:15 1011 29.85 840 24.81 -2 28.4 94 -2.9 26.8
10:20 1011 29.85 840 24.81 -2 28.3 94 -2.9 26.7
10:25 1011 29.85 840 24.81 -2 28.4 94 -2.9 26.8
10:30 1011 29.85 841 24.83 -1.9 28.6 94 -2.8 27
10:35 1011 29.85 841 24.83 -1.8 28.7 93 -2.8 27
10:40 1012 29.88 841 24.83 -1.8 28.7 93 -2.8 27
10:45 1012 29.88 841 24.83 -1.9 28.6 93 -2.8 27
10:50 1012 29.88 841 24.83 -1.7 28.9 94 -2.6 27.3
10:55 1012 29.88 841 24.83 -1.6 29.1 93 -2.6 27.3
11:00 1012 29.88 841 24.83 -1.7 29 93 -2.6 27.4
11:05 1012 29.88 841 24.83 -1.7 29 93 -2.6 27.3
11:10 1012 29.88 841 24.83 -1.6 29.1 93 -2.6 27.3
11:15 1012 29.88 842 24.86 -1.6 29.1 92 -2.7 27.2
11:20 1012 29.88 842 24.86 -1.6 29.1 92 -2.7 27.1
11:25 1013 29.91 842 24.86 -1.5 29.4 93 -2.5 27.4
11:30 1013 29.91 842 24.86 -1.3 29.6 92 -2.4 27.6
11:35 1013 29.91 842 24.86 -1.4 29.6 91 -2.7 27.2
11:40 1013 29.91 842 24.86 -1.4 29.5 91 -2.7 27.1
11:45 1013 29.91 842 24.86 -1.5 29.3 91 -2.8 26.9
11:50 1013 29.91 842 24.86 -1.5 29.3 91 -2.8 26.9
11:55 1013 29.91 842 24.86 -1.5 29.2 91 -2.9 26.9
12:00 1013 29.91 842 24.86 -1.5 29.3 89 -3 26.6
12:05 1013 29.91 842 24.86 -1.5 29.3 88 -3.2 26.3
12:10 1013 29.91 842 24.86 -1.4 29.5 89 -3 26.6
12:15 1013 29.91 842 24.86 -1.2 29.8 87 -3.1 26.4
12:20 1013 29.91 843 24.89 -1.2 29.9 87 -3.2 26.3
12:25 1013 29.91 843 24.89 -1 30.3 86 -3.1 26.5
12:30 1013 29.91 843 24.89 -1.1 30 85 -3.3 26
12:35 1013 29.91 843 24.89 -1 30.2 84 -3.5 25.8
12:40 1013 29.91 843 24.89 -1 30.3 83 -3.4 25.8
12:45 1013 29.91 843 24.89 -0.6 30.9 81 -3.5 25.7
12:50 1013 29.91 843 24.89 -0.4 31.3 79 -3.5 25.6
12:55 1013 29.91 842 24.86 -0.1 31.7 78 -3.6 25.6
13:00 1013 29.91 842 24.86 -0 31.9 77 -3.7 25.4
13:05 1013 29.91 842 24.86 -0 31.9 73 -4.2 24.4
13:10 1013 29.91 842 24.86 0.3 32.5 74 -3.9 25.1
13:15 1013 29.91 842 24.86 0.5 33 73 -3.7 25.3
13:20 1013 29.91 842 24.86 0.6 33.1 70 -4.3 24.3
13:25 1013 29.91 843 24.89 0.3 32.5 73 -4 24.8
13:30 1013 29.91 843 24.89 0.5 32.9 70 -4.4 24.1
13:35 1014 29.94 843 24.89 0.4 32.6 69 -4.6 23.7
13:40 1014 29.94 843 24.89 0.3 32.6 71 -4.3 24.2
13:45 1014 29.94 843 24.89 0.5 33 69 -4.6 23.8
13:50 1014 29.94 843 24.89 0.7 33.3 69 -4.2 24.4
13:55 1014 29.94 843 24.89 0.5 33 71 -4.1 24.6
14:00 1014 29.94 843 24.89 0.6 33 70 -4.3 24.2
14:05 1014 29.94 843 24.89 0.6 33 68 -4.6 23.7
14:10 1014 29.94 843 24.89 0.3 32.6 70 -4.5 24
14:15 1014 29.94 843 24.89 0.2 32.4 67 -5.1 22.8
14:20 1014 29.94 843 24.89 -0.1 31.8 72 -4.5 23.9
14:25 1014 29.94 843 24.89 -0.3 31.4 74 -4.5 24
14:30 1014 29.94 843 24.89 -0.7 30.8 74 -4.7 23.6
14:35 1014 29.94 843 24.89 -0.9 30.4 75 -4.8 23.3
14:40 1014 29.94 844 24.92 -1.2 29.9 75 -5.1 22.8
14:45 1014 29.94 844 24.92 -0.9 30.4 74 -4.9 23.1
14:50 1014 29.94 844 24.92 -0.6 31 73 -4.9 23.2
14:55 1015 29.97 844 24.92 -0.6 31 72 -5 23.1
15:00 1015 29.97 844 24.92 -0.7 30.7 72 -5.2 22.7
15:05 1015 29.97 844 24.92 -0.8 30.5 73 -5 22.9
15:10 1015 29.97 844 24.92 -0.8 30.5 71 -5.4 22.2
15:15 1015 29.97 844 24.92 -1 30.2 72 -5.4 22.4
15:20 1015 29.97 844 24.92 -0.9 30.3 73 -5.1 22.8
15:25 1015 29.97 844 24.92 -0.9 30.3 75 -4.9 23.2
15:30 1015 29.97 844 24.92 -1 30.2 75 -5 23.1
15:35 1015 29.97 844 24.92 -0.9 30.3 74 -5 23
15:40 1015 29.97 844 24.92 -0.7 30.7 72 -5.1 22.8
15:45 1015 29.97 844 24.92 -0.7 30.7 72 -5.1 22.9
15:50 1015 29.97 845 24.95 -0.6 30.9 71 -5.2 22.6
15:55 1015 29.97 845 24.95 -0.5 31 71 -5.2 22.7
16:00 1015 29.97 845 24.95 -0.7 30.8 72 -5.2 22.7
16:05 1016 30 845 24.95 -0.7 30.8 71 -5.3 22.4
16:10 1015 29.97 845 24.95 -0.6 31 69 -5.6 21.9
16:15 1016 30 845 24.95 -0.4 31.2 66 -5.9 21.3
16:20 1016 30 845 24.95 -0.3 31.4 67 -5.7 21.8
16:25 1016 30 845 24.95 -0.3 31.4 66 -5.9 21.3
16:30 1016 30 845 24.95 -0.3 31.5 64 -6.4 20.5
16:35 1016 30 845 24.95 -0.4 31.2 63 -6.6 20.1
16:40 1016 30 845 24.95 -0.5 31 65 -6.4 20.6
16:45 1016 30 845 24.95 -0.5 31 64 -6.6 20.2
16:50 1016 30 845 24.95 -0.6 30.9 64 -6.6 20.1
16:55 1016 30 845 24.95 -0.6 31 63 -6.7 19.9
17:00 1016 30 845 24.95 -0.5 31.1 58 -7.7 18.2
17:05 1016 30 845 24.95 -0.5 31.1 59 -7.5 18.5
17:10 1016 30 845 24.95 -0.5 31.1 58 -7.8 18
17:15 1016 30 845 24.95 -0.6 30.9 59 -7.6 18.3
17:20 1016 30 845 24.95 -0.8 30.5 59 -7.8 17.9
17:25 1016 30 845 24.95 -0.9 30.3 59 -8 17.6
17:30 1016 30 845 24.95 -1.1 30 58 -8.4 16.8
17:35 1016 30 846 24.98 -1.2 29.8 54 -9.4 15.1
17:40 1016 30 846 24.98 -1.3 29.6 54 -9.6 14.8
17:45 1016 30 846 24.98 -1.4 29.4 54 -9.5 14.9
17:50 1017 30.03 846 24.98 -1.5 29.3 53 -9.9 14.2
17:55 1017 30.03 846 24.98 -1.6 29.1 54 -9.8 14.4
18:00 1017 30.03 846 24.98 -1.8 28.8 54 -9.8 14.3
18:05 1017 30.03 846 24.98 -1.9 28.7 54 -10.1 13.9
18:10 1017 30.03 846 24.98 -1.8 28.7 53 -10.3 13.5
18:15 1017 30.03 846 24.98 -1.8 28.7 52 -10.5 13.2
18:20 1017 30.03 846 24.98 -1.8 28.7 51 -10.8 12.6
18:25 1017 30.03 846 24.98 -1.8 28.8 52 -10.4 13.3
18:30 1017 30.03 846 24.98 -1.7 28.9 52 -10.4 13.2
18:35 1017 30.03 846 24.98 -1.7 28.9 51 -10.6 13
18:40 1017 30.03 846 24.98 -1.6 29 50 -10.7 12.7
18:45 1017 30.03 846 24.98 -1.7 29 51 -10.7 12.8
18:50 1017 30.03 846 24.98 -1.7 28.9 52 -10.4 13.3
18:55 1017 30.03 847 25.01 -1.8 28.8 52 -10.5 13.1
19:00 1017 30.03 847 25.01 -1.9 28.6 52 -10.5 13
19:05 1018 30.06 847 25.01 -2 28.3 53 -10.4 13.3
19:10 1018 30.06 847 25.01 -2.1 28.3 53 -10.3 13.4
19:15 1018 30.06 847 25.01 -2.1 28.2 52 -10.7 12.7
19:20 1018 30.06 847 25.01 -2.1 28.3 51 -10.9 12.4
19:25 1018 30.06 847 25.01 -2 28.4 51 -10.9 12.4
19:30 1018 30.06 847 25.01 -2 28.4 49 -11.2 11.8
19:35 1018 30.06 847 25.01 -2 28.5 49 -11.3 11.6
19:40 1018 30.06 847 25.01 -1.9 28.6 49 -11.3 11.7
19:45 1018 30.06 847 25.01 -1.9 28.6 49 -11.3 11.7
19:50 1018 30.06 847 25.01 -1.9 28.7 49 -11.2 11.8
19:55 1018 30.06 847 25.01 -1.9 28.6 49 -11.4 11.6
20:00 1018 30.06 847 25.01 -1.9 28.6 48 -11.5 11.3
20:05 1018 30.06 847 25.01 -1.9 28.6 50 -11 12.1
20:10 1018 30.06 847 25.01 -1.9 28.5 51 -10.9 12.5
20:15 1018 30.06 847 25.01 -1.9 28.5 50 -11 12.2
20:20 1018 30.06 847 25.01 -2 28.5 52 -10.7 12.8
20:25 1018 30.06 847 25.01 -2 28.4 54 -10.1 13.8
20:30 1018 30.06 847 25.01 -2.1 28.2 54 -10.1 13.8
20:35 1018 30.06 847 25.01 -2.3 27.8 57 -9.8 14.4
20:40 1018 30.06 847 25.01 -2.5 27.4 59 -9.6 14.8
20:45 1018 30.06 847 25.01 -2.5 27.5 58 -9.7 14.5
20:50 1018 30.06 847 25.01 -2.5 27.5 55 -10.3 13.5
20:55 1018 30.06 847 25.01 -2.6 27.4 57 -9.9 14.2
21:00 1018 30.06 847 25.01 -2.6 27.3 57 -10 14
21:05 1018 30.06 847 25.01 -2.6 27.3 58 -9.8 14.3
21:10 1018 30.06 847 25.01 -2.6 27.3 57 -10 14
21:15 1018 30.06 847 25.01 -2.6 27.2 56 -10.2 13.6
21:20 1018 30.06 847 25.01 -2.7 27.2 56 -10.3 13.5
21:25 1018 30.06 847 25.01 -2.8 26.9 54 -10.8 12.5
21:30 1018 30.06 847 25.01 -2.9 26.9 54 -11 12.2
21:35 1018 30.06 847 25.01 -3 26.7 54 -11.1 12
21:40 1018 30.06 847 25.01 -3.1 26.5 52 -11.5 11.3
21:45 1018 30.06 847 25.01 -3.2 26.3 52 -11.8 10.8
21:50 1018 30.06 847 25.01 -3.3 26.1 51 -12 10.5
21:55 1018 30.06 847 25.01 -3.3 26 49 -12.5 9.4
22:00 1018 30.06 847 25.01 -3.4 25.8 51 -12.3 9.9
22:05 1018 30.06 847 25.01 -3.5 25.7 49 -12.9 8.9
22:10 1018 30.06 847 25.01 -3.4 25.8 49 -12.8 8.9
22:15 1018 30.06 847 25.01 -3.6 25.6 48 -13.1 8.5
22:20 1018 30.06 847 25.01 -3.6 25.4 49 -13 8.6
22:25 1018 30.06 848 25.04 -3.7 25.4 48 -13.1 8.4
22:30 1018 30.06 847 25.01 -3.7 25.4 47 -13.4 7.8
22:35 1018 30.06 847 25.01 -3.6 25.4 47 -13.4 7.8
22:40 1018 30.06 848 25.04 -3.6 25.5 46 -13.7 7.3
22:45 1018 30.06 847 25.01 -3.7 25.4 47 -13.5 7.7
22:50 1018 30.06 847 25.01 -3.9 25 47 -13.5 7.6
22:55 1018 30.06 848 25.04 -4.1 24.7 49 -13.2 8.3
23:00 1018 30.06 848 25.04 -4.2 24.4 48 -13.5 7.6
23:05 1018 30.06 848 25.04 -4.4 24 48 -13.9 7
23:10 1018 30.06 847 25.01 -4.8 23.3 51 -13.4 7.9
23:15 1018 30.06 847 25.01 -5.1 22.9 52 -13.4 7.8
23:20 1018 30.06 847 25.01 -5.2 22.6 53 -13.4 8
23:25 1018 30.06 847 25.01 -5.1 22.8 55 -12.9 8.8
23:30 1018 30.06 847 25.01 -5.2 22.7 55 -12.8 9
23:35 1018 30.06 847 25.01 -5.2 22.6 57 -12.6 9.4
23:40 1018 30.06 847 25.01 -5.6 22 58 -12.5 9.5
23:45 1018 30.06 847 25.01 -5.9 21.5 60 -12.5 9.5
23:50 1018 30.06 847 25.01 -6 21.3 60 -12.5 9.5
23:55 1018 30.06 847 25.01 -6 21.1 59 -12.7 9.1
24:00 1018 30.06 847 25.01 -6.1 21 61 -12.4 9.7